createdAt,value
2022-10-04T00:01:49.158Z,101658.94
2022-10-04T00:04:20.697Z,101646.44
2022-10-04T00:06:52.856Z,101654.34
2022-10-04T00:09:23.453Z,101643.34
2022-10-04T00:11:51.793Z,101645.00
2022-10-04T00:14:24.188Z,101652.66
2022-10-04T00:16:52.775Z,101653.78
2022-10-04T00:19:39.065Z,101657.44
2022-10-04T00:22:20.445Z,101652.50
2022-10-04T00:25:20.683Z,101657.56
2022-10-04T00:28:25.468Z,101642.28
2022-10-04T00:31:21.976Z,101641.59
2022-10-04T00:33:51.855Z,101639.94
2022-10-04T00:36:47.895Z,101636.00
2022-10-04T00:39:41.634Z,101643.63
2022-10-04T00:42:33.611Z,101639.00
2022-10-04T00:45:04.212Z,101636.22
2022-10-04T00:47:35.224Z,101627.25
2022-10-04T00:50:16.599Z,101628.72
2022-10-04T00:52:46.512Z,101625.69
2022-10-04T00:55:22.977Z,101626.75
2022-10-04T00:57:51.685Z,101616.44
2022-10-04T01:00:21.336Z,101607.16
2022-10-04T01:02:54.106Z,101602.50
2022-10-04T01:05:24.433Z,101598.00
2022-10-04T01:07:55.663Z,101598.78
2022-10-04T01:10:26.752Z,101591.44
2022-10-04T01:12:58.684Z,101596.44
2022-10-04T01:15:32.773Z,101589.28
2022-10-04T01:18:16.556Z,101593.16
2022-10-04T01:20:54.322Z,101596.16
2022-10-04T01:23:41.596Z,101593.19
2022-10-04T01:26:38.252Z,101583.44
2022-10-04T01:29:13.097Z,101576.78
2022-10-04T01:31:43.236Z,101578.44
2022-10-04T01:34:14.155Z,101574.63
2022-10-04T01:36:41.967Z,101574.84
2022-10-04T01:39:11.169Z,101564.28
2022-10-04T01:41:46.080Z,101563.34
2022-10-04T01:44:20.040Z,101560.41
2022-10-04T01:46:48.053Z,101561.06
2022-10-04T01:49:19.749Z,101553.69
2022-10-04T01:51:54.460Z,101555.25
2022-10-04T01:54:30.888Z,101560.56
2022-10-04T01:57:01.336Z,101563.56
2022-10-04T01:59:31.536Z,101562.69
2022-10-04T02:02:04.103Z,101560.09
2022-10-04T02:04:34.608Z,101553.59
2022-10-04T02:07:03.235Z,101553.81
2022-10-04T02:09:34.546Z,101558.53
2022-10-04T02:12:02.994Z,101541.72
2022-10-04T02:14:34.029Z,101547.31
2022-10-04T02:17:02.940Z,101547.34
2022-10-04T02:19:34.520Z,101533.72
2022-10-04T02:22:03.364Z,101527.59
2022-10-04T02:24:34.772Z,101532.16
2022-10-04T02:27:02.463Z,101528.69
2022-10-04T02:29:30.071Z,101519.69
2022-10-04T02:32:15.272Z,101502.28
2022-10-04T02:34:42.868Z,101504.47
2022-10-04T02:37:10.944Z,101504.88
2022-10-04T02:39:43.958Z,101497.03
2022-10-04T02:42:14.915Z,101512.03
2022-10-04T02:44:43.467Z,101505.41
2022-10-04T02:47:15.040Z,101508.91
2022-10-04T02:49:45.928Z,101502.16
2022-10-04T02:52:16.795Z,101503.16
2022-10-04T02:54:47.914Z,101495.31
2022-10-04T02:57:17.101Z,101489.97
2022-10-04T02:59:44.668Z,101490.91
2022-10-04T03:02:29.701Z,101488.69
2022-10-04T03:05:00.898Z,101490.75
2022-10-04T03:07:28.701Z,101484.53
2022-10-04T03:09:57.596Z,101485.38
2022-10-04T03:12:26.117Z,101482.03
2022-10-04T03:14:53.938Z,101484.94
2022-10-04T03:17:21.896Z,101484.50
2022-10-04T03:19:49.913Z,101483.91
2022-10-04T03:22:18.298Z,101486.00
2022-10-04T03:24:47.690Z,101480.59
2022-10-04T03:27:18.716Z,101483.31
2022-10-04T03:29:46.628Z,101479.44
2022-10-04T03:32:15.311Z,101479.91
2022-10-04T03:34:45.388Z,101478.91
2022-10-04T03:37:15.423Z,101474.00
2022-10-04T03:39:44.851Z,101463.56
2022-10-04T03:42:15.163Z,101455.78
2022-10-04T03:44:45.231Z,101447.81
2022-10-04T03:47:14.913Z,101449.66
2022-10-04T03:49:45.273Z,101443.06
2022-10-04T03:52:18.955Z,101443.00
2022-10-04T03:54:47.335Z,101436.22
2022-10-04T03:57:14.901Z,101447.69
2022-10-04T03:59:44.035Z,101445.91
2022-10-04T04:02:14.927Z,101458.16
2022-10-04T04:04:46.803Z,101452.75
2022-10-04T04:07:18.763Z,101451.97
2022-10-04T04:09:50.842Z,101454.59
2022-10-04T04:12:20.749Z,101447.63
2022-10-04T04:14:51.699Z,101458.75
2022-10-04T04:17:38.062Z,101453.81
2022-10-04T04:20:14.553Z,101453.22
2022-10-04T04:22:44.271Z,101455.38
2022-10-04T04:25:15.972Z,101451.34
2022-10-04T04:27:44.752Z,101446.13
2022-10-04T04:30:17.076Z,101455.94
2022-10-04T04:32:47.553Z,101442.94
2022-10-04T04:35:24.104Z,101442.19
2022-10-04T04:38:08.002Z,101442.63
2022-10-04T04:40:37.700Z,101443.59
2022-10-04T04:43:05.318Z,101436.69
2022-10-04T04:45:35.701Z,101438.59
2022-10-04T04:48:04.640Z,101439.66
2022-10-04T04:50:33.595Z,101444.47
2022-10-04T04:53:05.203Z,101441.31
2022-10-04T04:55:56.306Z,101441.03
2022-10-04T04:58:26.227Z,101445.19
2022-10-04T05:00:58.660Z,101440.16
2022-10-04T05:03:26.951Z,101434.25
2022-10-04T05:05:55.010Z,101436.81
2022-10-04T05:08:24.652Z,101439.00
2022-10-04T05:10:58.709Z,101436.50
2022-10-04T05:13:31.282Z,101445.63
2022-10-04T05:16:00.625Z,101436.03
2022-10-04T05:18:30.491Z,101438.78
2022-10-04T05:21:00.678Z,101435.56
2022-10-04T05:23:28.643Z,101436.44
2022-10-04T05:25:56.177Z,101437.69
2022-10-04T05:28:23.964Z,101447.22
2022-10-04T05:31:04.529Z,101452.25
2022-10-04T05:33:39.503Z,101440.44
2022-10-04T05:36:52.681Z,101443.06
2022-10-04T05:39:27.720Z,101442.44
2022-10-04T05:41:59.267Z,101438.03
2022-10-04T05:44:28.288Z,101438.78
2022-10-04T05:46:58.488Z,101438.53
2022-10-04T05:49:27.552Z,101439.41
2022-10-04T05:51:57.283Z,101435.09
2022-10-04T05:54:27.749Z,101442.63
2022-10-04T05:57:27.244Z,101435.59
2022-10-04T06:00:09.374Z,101433.28
2022-10-04T06:02:51.073Z,101435.00
2022-10-04T06:05:28.811Z,101431.78
2022-10-04T06:07:59.796Z,101428.47
2022-10-04T06:10:45.252Z,101432.03
2022-10-04T06:13:23.703Z,101435.69
2022-10-04T06:15:58.613Z,101436.56
2022-10-04T06:18:40.912Z,101438.78
2022-10-04T06:21:19.418Z,101443.69
2022-10-04T06:23:52.563Z,101441.47
2022-10-04T06:26:24.884Z,101450.06
2022-10-04T06:28:55.908Z,101448.69
2022-10-04T06:31:48.488Z,101450.34
2022-10-04T06:34:41.191Z,101444.88
2022-10-04T06:37:34.723Z,101448.75
2022-10-04T06:40:26.780Z,101438.34
2022-10-04T06:43:05.059Z,101437.91
2022-10-04T06:45:45.390Z,101441.53
2022-10-04T06:48:26.978Z,101439.22
2022-10-04T06:51:04.299Z,101445.09
2022-10-04T06:53:41.540Z,101446.78
2022-10-04T06:56:28.031Z,101450.34
2022-10-04T06:59:10.981Z,101441.41
2022-10-04T07:01:48.587Z,101438.09
2022-10-04T07:04:25.763Z,101441.13
2022-10-04T07:07:21.921Z,101444.59
2022-10-04T07:09:50.176Z,101446.44
2022-10-04T07:12:18.384Z,101441.13
2022-10-04T07:14:49.037Z,101447.91
2022-10-04T07:17:20.416Z,101443.38
2022-10-04T07:19:49.523Z,101442.31
2022-10-04T07:22:22.645Z,101444.78
2022-10-04T07:24:58.752Z,101447.59
2022-10-04T07:27:30.909Z,101443.69
2022-10-04T07:29:59.374Z,101443.69
2022-10-04T07:32:28.872Z,101446.06
2022-10-04T07:35:00.851Z,101440.66
2022-10-04T07:37:31.749Z,101442.09
2022-10-04T07:40:02.448Z,101452.53
2022-10-04T07:42:32.806Z,101445.31
2022-10-04T07:45:06.112Z,101440.78
2022-10-04T07:47:33.785Z,101443.94
2022-10-04T07:50:01.295Z,101432.22
2022-10-04T07:52:41.445Z,101428.84
2022-10-04T07:55:16.918Z,101419.72
2022-10-04T07:57:50.054Z,101420.03
2022-10-04T08:00:20.207Z,101417.22
2022-10-04T08:02:59.923Z,101417.38
2022-10-04T08:05:30.249Z,101417.53
2022-10-04T08:08:12.458Z,101411.25
2022-10-04T08:10:52.112Z,101409.53
2022-10-04T08:13:27.473Z,101420.72
2022-10-04T08:16:01.237Z,101411.31
2022-10-04T08:18:40.029Z,101410.53
2022-10-04T08:21:08.767Z,101418.41
2022-10-04T08:23:56.272Z,101404.84
2022-10-04T08:26:44.806Z,101406.91
2022-10-04T08:29:43.846Z,101406.69
2022-10-04T08:32:24.250Z,101405.03
2022-10-04T08:35:16.284Z,101393.50
2022-10-04T08:37:53.633Z,101394.59
2022-10-04T08:40:44.323Z,101390.31
2022-10-04T08:43:24.322Z,101393.47
2022-10-04T08:46:09.590Z,101383.94
2022-10-04T08:49:25.339Z,101385.47
2022-10-04T08:52:22.208Z,101393.25
2022-10-04T08:55:20.831Z,101394.63
2022-10-04T08:58:04.768Z,101402.13
2022-10-04T09:00:39.680Z,101394.88
2022-10-04T09:03:42.759Z,101400.69
2022-10-04T09:06:20.118Z,101394.50
2022-10-04T09:09:17.505Z,101395.88
2022-10-04T09:11:58.272Z,101387.09
2022-10-04T09:14:45.752Z,101394.66
2022-10-04T09:17:22.545Z,101397.41
2022-10-04T09:20:05.027Z,101391.75
2022-10-04T09:22:48.716Z,101377.44
2022-10-04T09:25:36.388Z,101375.22
2022-10-04T09:28:20.617Z,101377.09
2022-10-04T09:31:02.846Z,101378.19
2022-10-04T09:33:49.331Z,101369.88
2022-10-04T09:36:28.094Z,101373.81
2022-10-04T09:39:30.396Z,101369.88
2022-10-04T09:42:28.755Z,101372.38
2022-10-04T09:45:27.395Z,101373.31
2022-10-04T09:48:07.760Z,101372.53
2022-10-04T09:50:48.731Z,101371.47
2022-10-04T09:53:29.063Z,101380.13
2022-10-04T09:56:18.316Z,101380.97
2022-10-04T09:59:18.479Z,101383.84
2022-10-04T10:02:09.957Z,101388.94
2022-10-04T10:04:44.395Z,101387.63
2022-10-04T10:07:31.412Z,101390.47
2022-10-04T10:10:22.723Z,101385.13
2022-10-04T10:13:37.801Z,101390.59
2022-10-04T10:16:13.515Z,101383.53
2022-10-04T10:18:50.293Z,101385.88
2022-10-04T10:21:37.128Z,101374.41
2022-10-04T10:24:17.920Z,101376.53
2022-10-04T10:26:57.359Z,101378.63
2022-10-04T10:29:54.379Z,101366.78
2022-10-04T10:32:40.083Z,101367.81
2022-10-04T10:35:17.551Z,101364.97
2022-10-04T10:38:03.640Z,101367.44
2022-10-04T10:40:42.203Z,101364.50
2022-10-04T10:43:42.693Z,101362.59
2022-10-04T10:46:23.470Z,101358.81
2022-10-04T10:49:09.958Z,101340.63
2022-10-04T10:52:06.127Z,101341.75
2022-10-04T10:54:50.313Z,101329.53
2022-10-04T10:57:34.287Z,101335.69
2022-10-04T11:00:20.275Z,101332.44
2022-10-04T11:03:32.482Z,101335.00
2022-10-04T11:06:36.303Z,101330.53
2022-10-04T11:09:29.460Z,101334.59
2022-10-04T11:12:38.999Z,101327.72
2022-10-04T11:15:36.188Z,101337.81
2022-10-04T11:18:27.903Z,101340.72
2022-10-04T11:21:39.816Z,101337.06
2022-10-04T11:24:47.863Z,101337.31
2022-10-04T11:27:28.321Z,101331.69
2022-10-04T11:30:13.789Z,101310.31
2022-10-04T11:33:17.282Z,101315.63
2022-10-04T11:36:07.435Z,101304.88
2022-10-04T11:39:03.277Z,101299.38
2022-10-04T11:41:44.233Z,101311.53
2022-10-04T11:44:43.520Z,101302.31
2022-10-04T11:47:23.961Z,101300.78
2022-10-04T11:50:04.753Z,101293.78
2022-10-04T11:53:03.295Z,101286.75
2022-10-04T11:55:54.237Z,101282.50
2022-10-04T11:58:29.703Z,101278.59
2022-10-04T12:01:19.874Z,101270.59
2022-10-04T12:04:09.798Z,101267.41
2022-10-04T12:06:50.517Z,101273.19
2022-10-04T12:09:22.080Z,101264.47
2022-10-04T12:12:40.055Z,101262.78
2022-10-04T12:15:49.794Z,101257.88
2022-10-04T12:18:44.419Z,101254.25
2022-10-04T12:21:50.336Z,101259.38
2022-10-04T12:24:38.322Z,101267.22
2022-10-04T12:27:19.826Z,101263.81
2022-10-04T12:30:15.819Z,101258.91
2022-10-04T12:32:52.235Z,101263.56
2022-10-04T12:35:29.674Z,101259.97
2022-10-04T12:38:21.064Z,101254.22
2022-10-04T12:40:57.303Z,101252.94
2022-10-04T12:43:31.591Z,101250.00
2022-10-04T12:46:11.933Z,101247.66
2022-10-04T12:48:49.235Z,101246.16
2022-10-04T12:51:28.597Z,101247.03
2022-10-04T12:54:02.520Z,101239.78
2022-10-04T12:56:39.571Z,101228.09
2022-10-04T12:59:28.623Z,101218.19
2022-10-04T13:02:03.342Z,101222.16
2022-10-04T13:04:36.190Z,101218.75
2022-10-04T13:07:15.931Z,101211.78
2022-10-04T13:10:11.967Z,101217.97
2022-10-04T13:13:04.422Z,101213.00
2022-10-04T13:18:28.182Z,101195.53
2022-10-04T13:21:01.778Z,101193.44
2022-10-04T13:23:41.074Z,101192.59
2022-10-04T13:26:30.016Z,101191.41
2022-10-04T13:29:04.875Z,101181.19
2022-10-04T13:31:36.692Z,101182.75
2022-10-04T13:34:15.460Z,101198.78
2022-10-04T13:36:54.211Z,101198.41
2022-10-04T13:39:37.917Z,101199.78
2022-10-04T13:42:28.828Z,101202.94
2022-10-04T13:45:05.387Z,101201.50
2022-10-04T13:47:44.937Z,101198.94
2022-10-04T13:50:48.971Z,101190.78
2022-10-04T13:53:45.715Z,101189.84
2022-10-04T13:56:37.616Z,101191.56
2022-10-04T13:59:11.283Z,101186.91
2022-10-04T14:02:12.608Z,101176.66
2022-10-04T14:05:15.957Z,101187.09
2022-10-04T14:07:52.136Z,101166.22
2022-10-04T14:10:42.760Z,101155.13
2022-10-04T14:13:42.815Z,101141.66
2022-10-04T14:16:56.116Z,101137.03
2022-10-04T14:20:00.815Z,101144.13
2022-10-04T14:22:50.190Z,101134.59
2022-10-04T14:25:59.835Z,101134.28
2022-10-04T14:28:59.820Z,101125.41
2022-10-04T14:31:47.887Z,101124.06
2022-10-04T14:34:35.075Z,101119.56
2022-10-04T14:37:27.197Z,101115.00
2022-10-04T14:40:15.238Z,101128.22
2022-10-04T14:42:55.784Z,101113.69
2022-10-04T14:45:35.127Z,101118.44
2022-10-04T14:48:44.289Z,101114.25
2022-10-04T14:51:37.690Z,101115.03
2022-10-04T14:54:08.688Z,101120.75
2022-10-04T14:56:44.783Z,101128.69
2022-10-04T14:59:25.791Z,101133.91
2022-10-04T15:02:14.452Z,101123.59
2022-10-04T15:05:02.843Z,101143.13
2022-10-04T15:07:33.325Z,101139.97
2022-10-04T15:10:06.658Z,101137.38
2022-10-04T15:13:09.926Z,101136.97
2022-10-04T15:15:44.691Z,101141.56
2022-10-04T15:18:28.095Z,101144.00
2022-10-04T15:20:59.977Z,101150.38
2022-10-04T15:23:37.864Z,101145.16
2022-10-04T15:26:38.899Z,101142.72
2022-10-04T15:29:10.580Z,101140.16
2022-10-04T15:31:42.473Z,101150.38
2022-10-04T15:34:24.819Z,101137.63
2022-10-04T15:37:05.106Z,101139.59
2022-10-04T15:39:58.799Z,101143.63
2022-10-04T15:42:29.137Z,101135.31
2022-10-04T15:45:14.382Z,101133.84
2022-10-04T15:47:57.981Z,101130.66
2022-10-04T15:50:27.800Z,101135.75
2022-10-04T15:53:17.427Z,101130.63
2022-10-04T15:56:27.107Z,101125.53
2022-10-04T15:59:07.095Z,101134.13
2022-10-04T16:01:45.942Z,101133.97
2022-10-04T16:04:47.488Z,101136.19
2022-10-04T16:07:32.523Z,101138.50
2022-10-04T16:10:02.676Z,101130.44
2022-10-04T16:12:33.077Z,101138.94
2022-10-04T16:15:02.349Z,101126.16
2022-10-04T16:17:41.640Z,101125.13
2022-10-04T16:20:42.752Z,101131.81
2022-10-04T16:23:29.009Z,101123.41
2022-10-04T16:25:58.533Z,101110.34
2022-10-04T16:28:56.214Z,101105.97
2022-10-04T16:31:41.051Z,101101.72
2022-10-04T16:34:18.452Z,101101.44
2022-10-04T16:36:49.880Z,101106.59
2022-10-04T16:39:51.815Z,101103.16
2022-10-04T16:42:21.013Z,101112.38
2022-10-04T16:44:54.491Z,101114.03
2022-10-04T16:47:24.993Z,101113.91
2022-10-04T16:49:55.080Z,101115.59
2022-10-04T16:52:48.391Z,101111.75
2022-10-04T16:55:28.630Z,101117.94
2022-10-04T16:58:38.514Z,101119.66
2022-10-04T17:01:44.975Z,101112.28
2022-10-04T17:04:34.575Z,101108.28
2022-10-04T17:07:09.801Z,101110.38
2022-10-04T17:09:39.073Z,101110.91
2022-10-04T17:12:15.928Z,101112.91
2022-10-04T17:14:53.919Z,101109.38
2022-10-04T17:17:29.859Z,101115.13
2022-10-04T17:20:03.393Z,101111.44
2022-10-04T17:22:38.652Z,101119.88
2022-10-04T17:25:19.839Z,101127.25
2022-10-04T17:27:50.201Z,101132.13
2022-10-04T17:30:21.732Z,101125.06
2022-10-04T17:33:19.388Z,101126.56
2022-10-04T17:36:14.913Z,101130.84
2022-10-04T17:38:48.661Z,101131.31
2022-10-04T17:41:20.228Z,101142.44
2022-10-04T17:44:23.607Z,101151.13
2022-10-04T17:46:56.100Z,101146.78
2022-10-04T17:49:50.820Z,101143.59
2022-10-04T17:52:39.843Z,101135.94
2022-10-04T17:55:17.409Z,101127.91
2022-10-04T17:57:51.988Z,101112.78
2022-10-04T18:00:20.997Z,101106.44
2022-10-04T18:03:00.688Z,101108.41
2022-10-04T18:05:31.030Z,101115.81
2022-10-04T18:08:01.567Z,101109.19
2022-10-04T18:10:32.744Z,101113.16
2022-10-04T18:13:02.696Z,101121.19
2022-10-04T18:15:33.529Z,101128.31
2022-10-04T18:18:14.283Z,101131.63
2022-10-04T18:20:58.477Z,101138.63
2022-10-04T18:23:28.200Z,101139.28
2022-10-04T18:25:59.373Z,101138.56
2022-10-04T18:28:27.006Z,101141.97
2022-10-04T18:31:00.359Z,101144.28
2022-10-04T18:33:32.484Z,101131.38
2022-10-04T18:36:07.370Z,101136.38
2022-10-04T18:38:36.286Z,101129.25
2022-10-04T18:41:13.453Z,101120.94
2022-10-04T18:43:43.848Z,101125.75
2022-10-04T18:46:20.980Z,101129.81
2022-10-04T18:48:53.682Z,101120.56
2022-10-04T18:51:26.792Z,101120.19
2022-10-04T18:54:10.317Z,101105.31
2022-10-04T18:56:42.002Z,101103.72
2022-10-04T18:59:32.929Z,101107.31
2022-10-04T19:02:09.125Z,101103.72
2022-10-04T19:04:45.840Z,101105.22
2022-10-04T19:07:16.560Z,101114.63
2022-10-04T19:10:00.425Z,101109.22
2022-10-04T19:12:33.831Z,101126.19
2022-10-04T19:15:06.544Z,101119.66
2022-10-04T19:17:36.668Z,101119.28
2022-10-04T19:20:07.120Z,101122.03
2022-10-04T19:22:46.419Z,101120.59
2022-10-04T19:25:31.991Z,101118.88
2022-10-04T19:28:04.236Z,101113.00
2022-10-04T19:30:48.765Z,101096.34
2022-10-04T19:33:20.274Z,101095.75
2022-10-04T19:35:58.668Z,101097.94
2022-10-04T19:38:40.465Z,101101.09
2022-10-04T19:41:11.909Z,101099.38
2022-10-04T19:43:46.765Z,101104.69
2022-10-04T19:46:24.400Z,101103.34
2022-10-04T19:48:53.205Z,101087.13
2022-10-04T19:51:29.091Z,101069.91
2022-10-04T19:54:03.992Z,101066.50
2022-10-04T19:56:33.577Z,101079.47
2022-10-04T19:59:08.059Z,101069.56
2022-10-04T20:01:36.459Z,101062.78
2022-10-04T20:04:26.497Z,101062.09
2022-10-04T20:06:56.828Z,101048.34
2022-10-04T20:09:31.295Z,101050.25
2022-10-04T20:11:59.333Z,101050.06
2022-10-04T20:15:08.708Z,101057.06
2022-10-04T20:17:37.728Z,101053.66
2022-10-04T20:20:05.401Z,101059.34
2022-10-04T20:22:54.971Z,101060.44
2022-10-04T20:25:59.871Z,101070.31
2022-10-04T20:28:44.655Z,101075.81
2022-10-04T20:31:50.205Z,101082.81
2022-10-04T20:34:32.898Z,101082.19
2022-10-04T20:37:00.583Z,101078.88
2022-10-04T20:40:01.316Z,101082.72
2022-10-04T20:42:38.881Z,101071.28
2022-10-04T20:45:43.848Z,101064.47
2022-10-04T20:48:14.924Z,101075.63
2022-10-04T20:50:43.284Z,101062.75
2022-10-04T20:53:17.148Z,101051.59
2022-10-04T20:55:46.002Z,101054.25
2022-10-04T20:58:31.502Z,101053.28
2022-10-04T21:01:10.864Z,101044.19
2022-10-04T21:03:38.430Z,101042.28
2022-10-04T21:06:08.467Z,101048.84
2022-10-04T21:08:36.192Z,101046.28
2022-10-04T21:11:19.441Z,101057.63
2022-10-04T21:13:53.718Z,101055.00
2022-10-04T21:16:43.633Z,101066.38
2022-10-04T21:19:44.784Z,101056.41
2022-10-04T21:22:33.150Z,101051.75
2022-10-04T21:25:01.673Z,101058.59
2022-10-04T21:27:30.626Z,101068.06
2022-10-04T21:29:58.284Z,101075.16
2022-10-04T21:32:27.608Z,101069.03
2022-10-04T21:34:55.145Z,101058.13
2022-10-04T21:37:22.849Z,101061.41
2022-10-04T21:39:50.446Z,101071.28
2022-10-04T21:42:18.128Z,101073.56
2022-10-04T21:44:45.648Z,101073.56
2022-10-04T21:47:13.172Z,101064.25
2022-10-04T21:49:42.400Z,101063.03
2022-10-04T21:52:10.153Z,101070.22
2022-10-04T21:54:37.695Z,101072.53
2022-10-04T21:57:05.364Z,101073.28
2022-10-04T21:59:32.897Z,101060.72
2022-10-04T22:02:00.792Z,101067.53
2022-10-04T22:04:28.388Z,101056.38
2022-10-04T22:06:57.282Z,101059.88
2022-10-04T22:09:24.816Z,101058.22
2022-10-04T22:11:52.336Z,101062.78
2022-10-04T22:14:19.911Z,101061.25
2022-10-04T22:16:47.992Z,101062.56
2022-10-04T22:19:15.732Z,101055.75
2022-10-04T22:21:43.299Z,101047.06
2022-10-04T22:24:17.213Z,101053.09
2022-10-04T22:26:44.980Z,101054.06
2022-10-04T22:29:14.260Z,101051.97
2022-10-04T22:31:44.375Z,101040.97
2022-10-04T22:34:17.338Z,101047.97
2022-10-04T22:36:46.017Z,101030.94
2022-10-04T22:39:17.181Z,101041.53
2022-10-04T22:41:46.352Z,101035.19
2022-10-04T22:44:16.649Z,101033.59
2022-10-04T22:46:45.958Z,101036.25
2022-10-04T22:49:15.196Z,101033.28
2022-10-04T22:51:44.700Z,101034.63
2022-10-04T22:54:13.353Z,101043.91
2022-10-04T22:56:42.563Z,101033.78
2022-10-04T22:59:11.334Z,101032.63
2022-10-04T23:01:39.217Z,101031.13
2022-10-04T23:04:12.764Z,101027.78
2022-10-04T23:06:40.287Z,101028.84
2022-10-04T23:09:07.855Z,101039.44
2022-10-04T23:11:35.364Z,101027.25
2022-10-04T23:14:04.246Z,101021.09
2022-10-04T23:16:31.921Z,101025.50
2022-10-04T23:19:02.289Z,101013.19
2022-10-04T23:21:34.504Z,101016.16
2022-10-04T23:24:07.615Z,100997.75
2022-10-04T23:26:38.403Z,101002.72
2022-10-04T23:29:08.664Z,101009.38
2022-10-04T23:31:37.874Z,101002.41
2022-10-04T23:34:15.576Z,101000.41
2022-10-04T23:36:43.218Z,100999.31
2022-10-04T23:39:14.877Z,100999.13
2022-10-04T23:41:43.110Z,100997.41
2022-10-04T23:44:14.090Z,100998.97
2022-10-04T23:46:41.744Z,101001.03
2022-10-04T23:49:13.379Z,101009.31
2022-10-04T23:51:40.952Z,101005.06
2022-10-04T23:54:11.931Z,101007.81
2022-10-04T23:56:39.457Z,101001.22
2022-10-04T23:59:15.715Z,101011.22
